Accueil
METAR-TAF:

METAR-TAF

Aéroports :

Bolzano, Italie

latitude: 46-28N, longitude: 011-20E, altitude: 262 m

Observation

Le bulletin a été fait il y a 4 heures et 39 minutes, à 20:50 UTC
Vent calme
Température 13°C
Humidité 94%
Pression 1019 hPa
Visibilité 10 km ou plus
Quelques nuages à une hauteur de 11000 ft

METAR: LIPB 202050Z 00000KT 9999 FEW110 13/12 Q1019

Heure: 03:29 (01:29 UTC)

Prévision

Le bulletin a été fait il y a 8 heures et 29 minutes, à 17:00 UTC
Prévision valable du 20 à 18 UTC au 21 à 18 UTC
Vent 4 kt de direction variable
Visibilité 10 km ou plus
Nuages épars à une hauteur de 3000 ft

TAF: LIPB 201700Z 2018/2118 VRB04KT 9999 SCT030

Observations et prévisions météorologiques de plus de 4000 aéroports (messages METAR et TAF).

Les stations disponibles sont représentées par des disques jaunes et rouges sur la carte.

Passer la souris dessus pour voir le nom de la station.

Cliquer dessus pour voir les observations et prévisions météorologiques.

Pour changer de carte: cliquez sur les boutons verts avec une croix noire pour zoomer, sur le bouton vert avec un tiret pour effectuer un zoom arrière, ou sur les flèches vertes pour les cartes adjacentes.


METAR-TAF: